createdAt,value
2024-02-24T00:01:37.594Z,46.62
2024-02-24T00:04:39.580Z,47.99
2024-02-24T00:07:41.562Z,48.98
2024-02-24T00:10:43.695Z,48.27
2024-02-24T00:13:45.851Z,47.79
2024-02-24T00:16:47.871Z,46.29
2024-02-24T00:19:49.830Z,46.35
2024-02-24T00:22:51.727Z,46.23
2024-02-24T00:25:53.726Z,48.20
2024-02-24T00:28:55.646Z,47.28
2024-02-24T00:31:57.634Z,48.01
2024-02-24T00:34:59.551Z,47.00
2024-02-24T00:38:01.516Z,46.64
2024-02-24T00:41:03.541Z,46.43
2024-02-24T00:44:06.720Z,48.36
2024-02-24T00:47:08.791Z,50.34
2024-02-24T00:50:11.481Z,48.46
2024-02-24T00:53:13.515Z,47.88
2024-02-24T00:56:15.522Z,47.18
2024-02-24T00:59:17.614Z,48.10
2024-02-24T01:02:19.603Z,47.46
2024-02-24T01:05:21.614Z,46.00
2024-02-24T01:08:23.614Z,45.89
2024-02-24T01:11:25.590Z,47.63
2024-02-24T01:14:27.613Z,47.27
2024-02-24T01:17:29.569Z,46.19
2024-02-24T01:20:31.514Z,46.56
2024-02-24T01:23:34.135Z,46.56
2024-02-24T01:26:36.172Z,45.79
2024-02-24T01:29:38.825Z,46.49
2024-02-24T01:32:41.285Z,49.56
2024-02-24T01:35:43.357Z,48.74
2024-02-24T01:38:45.385Z,49.52
2024-02-24T01:41:47.349Z,49.79
2024-02-24T01:44:49.316Z,49.99
2024-02-24T01:47:51.981Z,47.65
2024-02-24T01:50:54.052Z,49.07
2024-02-24T01:53:56.113Z,49.58
2024-02-24T01:56:57.978Z,46.97
2024-02-24T01:59:59.911Z,48.73
2024-02-24T02:03:01.833Z,49.02
2024-02-24T02:06:04.462Z,50.08
2024-02-24T02:09:06.616Z,51.41
2024-02-24T02:12:08.768Z,52.34
2024-02-24T02:15:10.819Z,52.55
2024-02-24T02:18:13.343Z,51.58
2024-02-24T02:21:15.726Z,51.45
2024-02-24T02:24:17.775Z,50.43
2024-02-24T02:27:19.668Z,51.39
2024-02-24T02:30:21.549Z,50.45
2024-02-24T02:33:23.660Z,50.91
2024-02-24T02:36:25.772Z,51.30
2024-02-24T02:39:27.694Z,54.25
2024-02-24T02:42:29.596Z,53.88
2024-02-24T02:45:31.490Z,52.77
2024-02-24T02:48:33.596Z,53.60
2024-02-24T02:51:35.607Z,55.93
2024-02-24T02:54:37.536Z,55.01
2024-02-24T02:57:39.455Z,55.42
2024-02-24T03:00:41.338Z,59.01
2024-02-24T03:03:43.285Z,55.96
2024-02-24T03:06:45.275Z,54.99
2024-02-24T03:09:48.177Z,55.38
2024-02-24T03:12:50.072Z,58.16
2024-02-24T03:15:51.963Z,56.99
2024-02-24T03:18:53.976Z,51.87
2024-02-24T03:21:55.944Z,53.93
2024-02-24T03:24:57.894Z,53.33
2024-02-24T03:27:59.805Z,54.44
2024-02-24T03:31:02.573Z,53.69
2024-02-24T03:34:04.530Z,53.63
2024-02-24T03:37:06.505Z,51.48
2024-02-24T03:40:08.806Z,50.84
2024-02-24T03:43:10.760Z,51.04
2024-02-24T03:46:12.652Z,53.55
2024-02-24T03:49:14.707Z,54.69
2024-02-24T03:52:16.696Z,56.10
2024-02-24T03:55:18.615Z,56.55
2024-02-24T03:58:20.547Z,55.50
2024-02-24T04:01:22.481Z,57.90
2024-02-24T04:04:24.517Z,56.88
2024-02-24T04:07:26.442Z,55.74
2024-02-24T04:10:28.319Z,54.24
2024-02-24T04:13:30.218Z,55.66
2024-02-24T04:16:32.093Z,58.97
2024-02-24T04:19:34.054Z,57.50
2024-02-24T04:22:35.966Z,56.88
2024-02-24T04:25:37.836Z,58.34
2024-02-24T04:28:39.743Z,59.36
2024-02-24T04:31:41.602Z,55.81
2024-02-24T04:34:43.561Z,56.93
2024-02-24T04:37:45.512Z,57.47
2024-02-24T04:40:47.536Z,58.52
2024-02-24T04:43:49.425Z,59.52
2024-02-24T04:46:51.306Z,58.82
2024-02-24T04:49:53.361Z,59.29
2024-02-24T04:52:55.239Z,58.60
2024-02-24T04:55:57.175Z,58.97
2024-02-24T04:58:59.076Z,59.54
2024-02-24T05:02:00.990Z,58.98
2024-02-24T05:05:03.090Z,58.91
2024-02-24T05:08:05.155Z,58.03
2024-02-24T05:11:07.159Z,58.55
2024-02-24T05:14:09.189Z,59.30
2024-02-24T05:17:13.395Z,58.93
2024-02-24T05:20:15.471Z,60.26
2024-02-24T05:23:17.376Z,60.97
2024-02-24T05:26:22.934Z,61.49
2024-02-24T05:29:25.039Z,61.76
2024-02-24T05:32:26.976Z,58.99
2024-02-24T05:35:28.947Z,58.93
2024-02-24T05:38:30.878Z,59.01
2024-02-24T05:41:32.801Z,59.52
2024-02-24T05:44:34.974Z,57.73
2024-02-24T05:47:36.965Z,59.68
2024-02-24T05:50:39.020Z,60.88
2024-02-24T05:53:41.528Z,62.04
2024-02-24T05:56:43.537Z,59.14
2024-02-24T05:59:45.996Z,60.12
2024-02-24T06:02:47.969Z,61.17
2024-02-24T06:05:50.107Z,60.71
2024-02-24T06:08:52.359Z,62.28
2024-02-24T06:11:54.365Z,61.56
2024-02-24T06:14:56.392Z,60.96
2024-02-24T06:17:58.409Z,60.40
2024-02-24T06:21:00.420Z,61.18
2024-02-24T06:24:02.389Z,61.88
2024-02-24T06:27:04.371Z,59.16
2024-02-24T06:30:06.578Z,59.98
2024-02-24T06:33:08.908Z,60.60
2024-02-24T06:36:11.015Z,60.10
2024-02-24T06:39:12.887Z,60.10
2024-02-24T06:42:14.884Z,59.63
2024-02-24T06:45:16.863Z,56.82
2024-02-24T06:48:18.925Z,57.01
2024-02-24T06:51:21.889Z,57.27
2024-02-24T06:54:23.769Z,57.76
2024-02-24T06:57:25.673Z,58.24
2024-02-24T07:00:27.662Z,59.15
2024-02-24T07:03:31.232Z,60.65
2024-02-24T07:06:33.240Z,60.97
2024-02-24T07:09:35.252Z,60.25
2024-02-24T07:12:40.877Z,56.66
2024-02-24T07:15:45.263Z,57.27
2024-02-24T07:18:47.326Z,57.25
2024-02-24T07:21:49.477Z,56.74
2024-02-24T07:24:51.451Z,57.63
2024-02-24T07:27:53.374Z,58.49
2024-02-24T07:30:55.553Z,58.34
2024-02-24T07:33:57.638Z,57.08
2024-02-24T07:37:00.930Z,56.45
2024-02-24T07:40:02.920Z,56.97
2024-02-24T07:43:04.891Z,57.36
2024-02-24T07:46:06.834Z,58.17
2024-02-24T07:49:09.345Z,59.02
2024-02-24T07:52:11.315Z,58.83
2024-02-24T07:55:13.334Z,58.00
2024-02-24T07:58:15.273Z,57.23
2024-02-24T08:01:17.392Z,57.37
2024-02-24T08:04:20.282Z,57.22
2024-02-24T08:07:22.268Z,54.83
2024-02-24T08:10:24.162Z,55.08
2024-02-24T08:13:26.163Z,54.40
2024-02-24T08:16:28.552Z,55.06
2024-02-24T08:19:34.879Z,56.08
2024-02-24T08:22:36.992Z,55.39
2024-02-24T08:25:40.493Z,54.52
2024-02-24T08:28:42.644Z,54.74
2024-02-24T08:31:44.603Z,55.52
2024-02-24T08:34:46.689Z,55.86
2024-02-24T08:37:48.653Z,55.73
2024-02-24T08:40:50.604Z,54.77
2024-02-24T08:43:52.731Z,54.37
2024-02-24T08:46:54.700Z,53.36
2024-02-24T08:49:56.726Z,52.47
2024-02-24T08:52:58.688Z,55.00
2024-02-24T08:56:01.414Z,52.38
2024-02-24T08:59:03.327Z,50.41
2024-02-24T09:02:05.712Z,51.02
2024-02-24T09:05:07.847Z,50.28
2024-02-24T09:08:09.833Z,49.24
2024-02-24T09:11:12.295Z,49.83
2024-02-24T09:14:14.626Z,49.29
2024-02-24T09:17:16.746Z,49.65
2024-02-24T09:20:18.778Z,49.41
2024-02-24T09:23:20.781Z,50.46
2024-02-24T09:26:22.901Z,47.51
2024-02-24T09:29:25.004Z,46.70
2024-02-24T09:32:26.932Z,46.47
2024-02-24T09:35:28.977Z,45.65
2024-02-24T09:38:30.960Z,44.86
2024-02-24T09:41:32.988Z,43.81
2024-02-24T09:44:35.014Z,44.97
2024-02-24T09:47:36.969Z,47.27
2024-02-24T09:50:39.101Z,44.75
2024-02-24T09:53:41.404Z,47.30
2024-02-24T09:56:43.467Z,46.21
2024-02-24T09:59:45.742Z,44.29
2024-02-24T10:02:47.812Z,43.17
2024-02-24T10:05:52.767Z,44.58
2024-02-24T10:08:54.862Z,43.27
2024-02-24T10:11:56.962Z,43.26
2024-02-24T10:14:58.917Z,42.53
2024-02-24T10:18:01.461Z,43.72
2024-02-24T10:21:03.805Z,42.68
2024-02-24T10:24:05.805Z,42.90
2024-02-24T10:27:07.764Z,42.66
2024-02-24T10:30:10.247Z,43.13
2024-02-24T10:33:12.598Z,43.78
2024-02-24T10:36:15.205Z,43.54
2024-02-24T10:39:17.537Z,43.43
2024-02-24T10:42:19.605Z,44.24
2024-02-24T10:45:21.605Z,43.14
2024-02-24T10:48:23.861Z,42.58
2024-02-24T10:51:25.882Z,42.58
2024-02-24T10:54:30.581Z,42.26
2024-02-24T10:57:33.108Z,43.25
2024-02-24T11:00:38.039Z,43.03
2024-02-24T11:03:40.218Z,42.62
2024-02-24T11:06:53.094Z,43.85
2024-02-24T11:09:55.552Z,44.01
2024-02-24T11:12:57.787Z,44.46
2024-02-24T11:16:00.678Z,45.37
2024-02-24T11:19:02.797Z,43.73
2024-02-24T11:22:06.589Z,43.93
2024-02-24T11:25:08.496Z,41.64
2024-02-24T11:28:10.396Z,41.67
2024-02-24T11:31:18.919Z,41.48
2024-02-24T11:34:20.898Z,41.25
2024-02-24T11:37:22.854Z,41.80
2024-02-24T11:40:24.787Z,41.25
2024-02-24T11:43:26.721Z,41.57
2024-02-24T11:46:28.701Z,40.59
2024-02-24T11:49:30.829Z,40.76
2024-02-24T11:52:32.790Z,40.96
2024-02-24T11:55:35.137Z,40.25
2024-02-24T11:58:37.079Z,37.26
2024-02-24T12:01:38.961Z,37.50
2024-02-24T12:04:41.043Z,36.89
2024-02-24T12:07:43.879Z,36.28
2024-02-24T12:10:45.867Z,36.65
2024-02-24T12:13:48.103Z,37.38
2024-02-24T12:16:50.006Z,36.59
2024-02-24T12:19:52.007Z,36.54
2024-02-24T12:22:53.907Z,35.96
2024-02-24T12:25:55.807Z,36.70
2024-02-24T12:28:57.729Z,38.36
2024-02-24T12:31:59.646Z,38.51
2024-02-24T12:35:05.520Z,40.48
2024-02-24T12:38:08.145Z,43.04
2024-02-24T12:41:13.573Z,41.30
2024-02-24T12:44:15.747Z,39.99
2024-02-24T12:47:17.891Z,41.76
2024-02-24T12:50:20.264Z,41.66
2024-02-24T12:53:22.957Z,42.69
2024-02-24T12:56:24.940Z,43.63
2024-02-24T12:59:29.766Z,43.81
2024-02-24T13:02:32.009Z,44.42
2024-02-24T13:05:34.844Z,45.21
2024-02-24T13:08:36.962Z,44.36
2024-02-24T13:11:38.985Z,43.57
2024-02-24T13:14:41.071Z,44.25
2024-02-24T13:17:43.083Z,41.89
2024-02-24T13:20:45.047Z,41.54
2024-02-24T13:23:47.037Z,42.66
2024-02-24T13:26:49.053Z,43.81
2024-02-24T13:29:52.570Z,41.02
2024-02-24T13:32:54.656Z,41.75
2024-02-24T13:35:56.935Z,44.30
2024-02-24T13:38:58.997Z,42.74
2024-02-24T13:42:01.075Z,42.33
2024-02-24T13:45:03.122Z,42.03
2024-02-24T13:48:05.295Z,43.40
2024-02-24T13:51:07.421Z,41.62
2024-02-24T13:54:09.385Z,40.66
2024-02-24T13:57:11.461Z,41.75
2024-02-24T14:00:13.696Z,42.70
2024-02-24T14:03:15.715Z,41.17
2024-02-24T14:06:20.362Z,41.66
2024-02-24T14:09:24.003Z,41.21
2024-02-24T14:12:25.993Z,40.86
2024-02-24T14:15:27.947Z,42.37
2024-02-24T14:18:30.248Z,43.11
2024-02-24T14:21:32.306Z,41.27
2024-02-24T14:24:34.259Z,40.56
2024-02-24T14:27:37.165Z,41.41
2024-02-24T14:30:39.460Z,41.58
2024-02-24T14:33:41.644Z,42.18
2024-02-24T14:36:43.645Z,41.01
2024-02-24T14:39:45.511Z,42.74
2024-02-24T14:42:47.441Z,41.72
2024-02-24T14:45:49.365Z,42.39
2024-02-24T14:48:52.449Z,40.38
2024-02-24T14:51:55.712Z,40.36
2024-02-24T14:54:57.606Z,41.58
2024-02-24T14:57:59.523Z,40.28
2024-02-24T15:01:01.546Z,41.89
2024-02-24T15:04:03.611Z,41.88
2024-02-24T15:07:05.657Z,40.38
2024-02-24T15:10:07.646Z,41.81
2024-02-24T15:13:09.644Z,40.71
2024-02-24T15:16:11.635Z,44.20
2024-02-24T15:19:14.130Z,43.23
2024-02-24T15:22:16.038Z,42.20
2024-02-24T15:25:18.007Z,40.89
2024-02-24T15:28:19.976Z,41.37
2024-02-24T15:31:23.366Z,41.37
2024-02-24T15:34:26.529Z,42.11
2024-02-24T15:37:28.612Z,42.31
2024-02-24T15:40:33.555Z,41.78
2024-02-24T15:43:36.457Z,40.89
2024-02-24T15:46:38.316Z,41.27
2024-02-24T15:49:41.318Z,42.13
2024-02-24T15:52:45.022Z,42.23
2024-02-24T15:55:46.999Z,42.34
2024-02-24T15:58:49.010Z,42.95
2024-02-24T16:01:50.974Z,42.95
2024-02-24T16:04:52.983Z,42.35
2024-02-24T16:07:54.887Z,43.04
2024-02-24T16:10:56.875Z,42.77
2024-02-24T16:14:00.396Z,43.09
2024-02-24T16:17:04.556Z,43.91
2024-02-24T16:20:07.637Z,44.08
2024-02-24T16:23:09.654Z,43.95
2024-02-24T16:26:14.430Z,44.46
2024-02-24T16:29:16.405Z,46.77
2024-02-24T16:32:18.341Z,46.66
2024-02-24T16:35:20.274Z,46.31
2024-02-24T16:38:22.236Z,46.82
2024-02-24T16:41:24.411Z,48.40
2024-02-24T16:44:26.708Z,48.07
2024-02-24T16:50:47.651Z,48.66
2024-02-24T16:53:49.605Z,48.63
2024-02-24T16:56:51.767Z,47.70
2024-02-24T16:59:53.710Z,48.79
2024-02-24T17:02:55.928Z,48.64
2024-02-24T17:05:58.749Z,47.64
2024-02-24T17:09:00.787Z,47.89
2024-02-24T17:12:04.023Z,47.54
2024-02-24T17:15:08.668Z,48.18
2024-02-24T17:18:18.322Z,47.69
2024-02-24T17:21:23.292Z,48.13
2024-02-24T17:24:25.317Z,47.74
2024-02-24T17:27:27.485Z,47.57
2024-02-24T17:30:29.351Z,47.60
2024-02-24T17:33:31.326Z,47.47
2024-02-24T17:36:39.856Z,47.82
2024-02-24T17:39:43.591Z,47.88
2024-02-24T17:42:45.479Z,48.47
2024-02-24T17:45:47.391Z,48.22
2024-02-24T17:48:49.460Z,48.82
2024-02-24T17:51:52.116Z,49.38
2024-02-24T17:54:54.349Z,48.36
2024-02-24T17:57:56.269Z,48.67
2024-02-24T18:00:58.239Z,49.16
2024-02-24T18:04:01.327Z,49.79
2024-02-24T18:07:03.391Z,51.01
2024-02-24T18:10:05.564Z,51.91
2024-02-24T18:13:07.563Z,50.92
2024-02-24T18:16:12.304Z,52.30
2024-02-24T18:19:14.323Z,52.15
2024-02-24T18:22:16.346Z,54.23
2024-02-24T18:25:18.348Z,53.99
2024-02-24T18:28:20.350Z,53.78
2024-02-24T18:31:22.319Z,54.00
2024-02-24T18:34:24.304Z,52.78
2024-02-24T18:37:26.259Z,54.38
2024-02-24T18:40:28.267Z,52.66
2024-02-24T18:43:30.217Z,54.06
2024-02-24T18:46:32.297Z,53.92
2024-02-24T18:49:36.101Z,53.26
2024-02-24T18:52:41.452Z,53.21
2024-02-24T18:55:43.468Z,56.94
2024-02-24T18:58:45.476Z,55.42
2024-02-24T19:01:47.596Z,54.91
2024-02-24T19:04:51.601Z,56.24
2024-02-24T19:07:53.929Z,53.95
2024-02-24T19:10:56.072Z,54.11
2024-02-24T19:14:00.932Z,55.72
2024-02-24T19:17:03.047Z,55.78
2024-02-24T19:20:05.786Z,57.12
2024-02-24T19:23:08.018Z,58.72
2024-02-24T19:26:10.251Z,57.66
2024-02-24T19:29:12.451Z,56.68
2024-02-24T19:32:14.375Z,56.92
2024-02-24T19:35:16.350Z,57.17
2024-02-24T19:38:18.461Z,59.66
2024-02-24T19:41:20.486Z,56.30
2024-02-24T19:44:22.821Z,56.60
2024-02-24T19:47:25.466Z,55.37
2024-02-24T19:50:28.415Z,56.78
2024-02-24T19:53:30.491Z,55.01
2024-02-24T19:56:32.930Z,55.21
2024-02-24T19:59:40.050Z,56.43
2024-02-24T20:02:42.190Z,56.03
2024-02-24T20:05:44.364Z,54.87
2024-02-24T20:08:46.444Z,54.19
2024-02-24T20:11:48.520Z,55.27
2024-02-24T20:14:50.875Z,56.92
2024-02-24T20:17:53.042Z,57.84
2024-02-24T20:20:58.890Z,57.59
2024-02-24T20:24:00.996Z,55.71
2024-02-24T20:27:03.512Z,55.53
2024-02-24T20:30:05.796Z,53.46
2024-02-24T20:33:08.765Z,55.60
2024-02-24T20:36:10.965Z,55.79
2024-02-24T20:39:14.431Z,56.90
2024-02-24T20:42:16.838Z,54.01
2024-02-24T20:45:18.964Z,53.50
2024-02-24T20:48:21.477Z,56.91
2024-02-24T20:51:23.649Z,54.56
2024-02-24T20:54:25.730Z,53.78
2024-02-24T20:57:27.689Z,55.44
2024-02-24T21:00:29.557Z,56.48
2024-02-24T21:03:31.675Z,54.91
2024-02-24T21:06:33.730Z,54.43
2024-02-24T21:09:35.874Z,55.45
2024-02-24T21:12:37.800Z,56.96
2024-02-24T21:15:39.752Z,55.37
2024-02-24T21:18:41.905Z,55.71
2024-02-24T21:21:43.973Z,55.49
2024-02-24T21:24:45.838Z,54.64
2024-02-24T21:27:47.875Z,55.89
2024-02-24T21:30:49.817Z,56.83
2024-02-24T21:33:51.927Z,56.25
2024-02-24T21:36:53.917Z,55.31
2024-02-24T21:39:57.184Z,56.84
2024-02-24T21:43:00.092Z,58.98
2024-02-24T21:46:01.993Z,57.47
2024-02-24T21:49:04.676Z,57.29
2024-02-24T21:52:08.475Z,58.33
2024-02-24T21:55:10.725Z,57.18
2024-02-24T21:58:12.601Z,56.65
2024-02-24T22:01:16.650Z,56.98
2024-02-24T22:04:18.745Z,57.67
2024-02-24T22:07:22.710Z,57.01
2024-02-24T22:10:25.101Z,57.43
2024-02-24T22:13:27.005Z,58.17
2024-02-24T22:16:28.858Z,56.50
2024-02-24T22:19:32.741Z,57.08
2024-02-24T22:22:34.804Z,56.24
2024-02-24T22:25:36.713Z,57.86
2024-02-24T22:28:38.598Z,58.11
2024-02-24T22:31:41.642Z,56.86
2024-02-24T22:34:43.576Z,57.11
2024-02-24T22:37:45.564Z,56.82
2024-02-24T22:40:48.137Z,57.86
2024-02-24T22:43:50.300Z,57.27
2024-02-24T22:46:52.348Z,55.41
2024-02-24T22:49:54.293Z,57.76
2024-02-24T22:52:56.218Z,56.67
2024-02-24T22:55:58.119Z,57.77
2024-02-24T22:59:02.404Z,57.20
2024-02-24T23:02:04.951Z,57.36
2024-02-24T23:05:07.045Z,57.76
2024-02-24T23:08:09.250Z,57.16
2024-02-24T23:11:16.698Z,57.95
2024-02-24T23:14:24.294Z,57.30
2024-02-24T23:17:26.474Z,58.24
2024-02-24T23:20:28.543Z,57.80
2024-02-24T23:23:30.471Z,58.91
2024-02-24T23:26:32.718Z,56.76
2024-02-24T23:29:34.800Z,59.49
2024-02-24T23:32:36.805Z,59.00
2024-02-24T23:35:38.769Z,58.46
2024-02-24T23:38:40.797Z,56.51
2024-02-24T23:41:42.768Z,57.47
2024-02-24T23:44:44.950Z,60.55
2024-02-24T23:47:47.067Z,60.44
2024-02-24T23:50:49.052Z,59.75
2024-02-24T23:53:51.717Z,59.96
2024-02-24T23:56:54.027Z,59.48
2024-02-24T23:59:55.977Z,59.92
